This is the latest recevied weather packets stored in our database for station/object KE8BSM. If no packets are shown the sender has not sent any weather packets the latest 10 day(s).
| Time | Temp. | Humidity | Pressure | Rain* | Wind** | Luminosity | Snow |
|---|---|---|---|---|---|---|---|
| 1777566317 | 8.33° C | 51% | 1015.9 hPa | 0 mm | - | 314 W/m² | - |
| 1777564518 | 8.33° C | 57% | 1016 hPa | 0 mm | - | 126 W/m² | - |
| 1777563319 | 8.33° C | 55% | 1016 hPa | 0 mm | - | 206 W/m² | - |
| 1777548322 | 2.78° C | 99% | 1015.7 hPa | 0 mm | - | 25 W/m² | - |
| 1777547122 | 2.22° C | 99% | 1015.5 hPa | 0 mm | - | 12 W/m² | - |
| 1777539324 | 4.44° C | 93% | 1015.3 hPa | 0 mm | - | 0 W/m² | - |
| 1777538724 | 4.44° C | 91% | 1015.3 hPa | 0 mm | - | 0 W/m² | - |
| 1777536925 | 5° C | 88% | 1015.3 hPa | 0 mm | - | 0 W/m² | - |
| 1777535725 | 5° C | 90% | 1015.3 hPa | 0 mm | - | 0 W/m² | - |
| 1777533926 | 5° C | 88% | 1015.2 hPa | 0 mm | - | 0 W/m² | - |
| 1777526147 | 5° C | 95% | 1015.3 hPa | 0 mm | - | 0 W/m² | - |
| 1777525528 | 5° C | 96% | 1015.4 hPa | 0 mm | - | 0 W/m² | - |
| 1777519515 | 6.11° C | 96% | 1015.3 hPa | 0 mm | - | 0 W/m² | - |
| 1777518336 | 6.11° C | 96% | 1015.4 hPa | 0 mm | - | 0 W/m² | - |
| 1777508718 | 7.22° C | 92% | 1013.6 hPa | 0 mm | - | 2 W/m² | - |
| 1777505716 | 7.22° C | 92% | 1013.2 hPa | 0 mm | - | 18 W/m² | - |
| 1777505116 | 7.22° C | 91% | 1013.1 hPa | 0 mm | - | 14 W/m² | - |
| 1777503919 | 7.78° C | 89% | 1013.1 hPa | 0 mm | - | 14 W/m² | - |
| 1777503316 | 7.78° C | 91% | 1013 hPa | 0 mm | - | 23 W/m² | - |
| 1777502736 | 7.78° C | 91% | 1013 hPa | 0 mm | - | 29 W/m² | - |
| 1777490139 | 7.78° C | 99% | 1012.3 hPa | 0.51 mm | - | 87 W/m² | - |
| 1777488918 | 7.78° C | 98% | 1012.2 hPa | 0.76 mm | - | 103 W/m² | - |
| 1777474545 | 10° C | 89% | 1012.2 hPa | 0 mm | - | 126 W/m² | - |
| 1777473325 | 10° C | 88% | 1012.3 hPa | 0 mm | - | 194 W/m² | - |
| 1777468546 | - | - | - | 0 mm | - | - | - |
* Rain latest hour (hover to see other rain measurements)
** Current wind speed in m/s (hover to see current wind gust speed)